sensor_id;sensor_type;location;lat;lon;timestamp;pressure;altitude;pressure_sealevel;temperature;humidity
3150;BME280;32503;47.748;8.960;2023-04-06T00:00:50;97105.78;;;5.17;52.25
3150;BME280;32503;47.748;8.960;2023-04-06T00:03:19;97098.81;;;5.16;51.91
3150;BME280;32503;47.748;8.960;2023-04-06T00:05:47;97099.44;;;5.13;51.99
3150;BME280;32503;47.748;8.960;2023-04-06T00:08:14;97093.59;;;5.11;52.36
3150;BME280;32503;47.748;8.960;2023-04-06T00:10:41;97091.69;;;5.03;52.74
3150;BME280;32503;47.748;8.960;2023-04-06T00:13:09;97097.69;;;5.00;52.96
3150;BME280;32503;47.748;8.960;2023-04-06T00:15:36;97091.22;;;5.01;52.87
3150;BME280;32503;47.748;8.960;2023-04-06T00:18:03;97091.22;;;5.01;52.83
3150;BME280;32503;47.748;8.960;2023-04-06T00:20:32;97086.81;;;4.96;53.04
3150;BME280;32503;47.748;8.960;2023-04-06T00:23:07;97088.34;;;4.88;53.07
3150;BME280;32503;47.748;8.960;2023-04-06T00:25:42;97073.19;;;4.75;53.14
3150;BME280;32503;47.748;8.960;2023-04-06T00:28:14;97032.78;;;4.45;53.24
3150;BME280;32503;47.748;8.960;2023-04-06T00:30:42;97087.53;;;4.79;52.55
3150;BME280;32503;47.748;8.960;2023-04-06T00:33:17;97081.88;;;4.81;52.92
3150;BME280;32503;47.748;8.960;2023-04-06T00:35:46;97081.72;;;4.77;52.89
3150;BME280;32503;47.748;8.960;2023-04-06T00:38:14;97067.47;;;4.59;53.26
3150;BME280;32503;47.748;8.960;2023-04-06T00:40:41;97078.53;;;4.66;53.63
3150;BME280;32503;47.748;8.960;2023-04-06T00:43:11;97079.91;;;4.64;53.64
3150;BME280;32503;47.748;8.960;2023-04-06T00:45:38;97038.25;;;4.40;53.52
3150;BME280;32503;47.748;8.960;2023-04-06T00:48:06;97076.78;;;4.70;53.17
3150;BME280;32503;47.748;8.960;2023-04-06T00:50:34;97084.97;;;4.65;53.58
3150;BME280;32503;47.748;8.960;2023-04-06T00:53:02;97084.97;;;4.65;53.76
3150;BME280;32503;47.748;8.960;2023-04-06T00:55:30;97083.56;;;4.68;53.95
3150;BME280;32503;47.748;8.960;2023-04-06T00:57:59;97070.00;;;4.64;53.57
3150;BME280;32503;47.748;8.960;2023-04-06T01:00:26;97068.72;;;4.62;53.71
3150;BME280;32503;47.748;8.960;2023-04-06T01:02:53;97080.56;;;4.61;53.65
3150;BME280;32503;47.748;8.960;2023-04-06T01:05:21;97073.41;;;4.47;54.14
3150;BME280;32503;47.748;8.960;2023-04-06T01:07:48;97048.91;;;4.23;54.75
3150;BME280;32503;47.748;8.960;2023-04-06T01:10:24;97075.88;;;4.35;54.60
3150;BME280;32503;47.748;8.960;2023-04-06T01:12:51;97072.38;;;4.26;55.22
3150;BME280;32503;47.748;8.960;2023-04-06T01:15:19;97068.06;;;4.16;55.44
3150;BME280;32503;47.748;8.960;2023-04-06T01:17:47;97067.28;;;4.15;55.58
3150;BME280;32503;47.748;8.960;2023-04-06T01:20:14;97065.56;;;4.20;55.26
3150;BME280;32503;47.748;8.960;2023-04-06T01:22:43;97067.28;;;4.15;55.31
3150;BME280;32503;47.748;8.960;2023-04-06T01:25:11;97054.47;;;4.04;55.66
3150;BME280;32503;47.748;8.960;2023-04-06T01:27:38;97060.69;;;4.22;55.17
3150;BME280;32503;47.748;8.960;2023-04-06T01:30:07;97063.56;;;4.34;54.82
3150;BME280;32503;47.748;8.960;2023-04-06T01:32:34;97036.00;;;4.25;54.30
3150;BME280;32503;47.748;8.960;2023-04-06T01:35:01;97056.66;;;4.33;54.43
3150;BME280;32503;47.748;8.960;2023-04-06T01:37:28;97057.53;;;4.20;55.00
3150;BME280;32503;47.748;8.960;2023-04-06T01:39:59;97060.47;;;4.09;55.43
3150;BME280;32503;47.748;8.960;2023-04-06T01:42:27;97054.50;;;4.12;54.79
3150;BME280;32503;47.748;8.960;2023-04-06T01:44:54;97053.06;;;4.06;54.93
3150;BME280;32503;47.748;8.960;2023-04-06T01:47:21;97058.84;;;3.99;55.84
3150;BME280;32503;47.748;8.960;2023-04-06T01:49:48;97053.56;;;3.86;56.01
3150;BME280;32503;47.748;8.960;2023-04-06T01:52:16;97038.75;;;3.79;55.83
3150;BME280;32503;47.748;8.960;2023-04-06T01:54:43;97059.47;;;3.74;56.14
3150;BME280;32503;47.748;8.960;2023-04-06T01:57:12;97055.88;;;3.78;55.98
3150;BME280;32503;47.748;8.960;2023-04-06T01:59:39;97050.97;;;3.72;55.85
3150;BME280;32503;47.748;8.960;2023-04-06T02:02:06;97064.16;;;3.68;56.28
3150;BME280;32503;47.748;8.960;2023-04-06T02:04:33;97056.88;;;3.60;56.20
3150;BME280;32503;47.748;8.960;2023-04-06T02:07:00;97051.66;;;3.55;56.12
3150;BME280;32503;47.748;8.960;2023-04-06T02:09:27;97059.03;;;3.58;56.43
3150;BME280;32503;47.748;8.960;2023-04-06T02:11:55;97056.00;;;3.51;56.47
3150;BME280;32503;47.748;8.960;2023-04-06T02:14:25;97056.75;;;3.42;56.61
3150;BME280;32503;47.748;8.960;2023-04-06T02:16:53;97068.22;;;3.43;57.10
3150;BME280;32503;47.748;8.960;2023-04-06T02:19:20;97060.97;;;3.44;56.55
3150;BME280;32503;47.748;8.960;2023-04-06T02:21:48;97057.41;;;3.48;56.15
3150;BME280;32503;47.748;8.960;2023-04-06T02:24:15;97054.91;;;3.52;56.05
3150;BME280;32503;47.748;8.960;2023-04-06T02:26:42;97054.75;;;3.48;55.98
3150;BME280;32503;47.748;8.960;2023-04-06T02:29:09;97049.69;;;3.47;56.22
3150;BME280;32503;47.748;8.960;2023-04-06T02:31:38;97050.09;;;3.40;56.24
3150;BME280;32503;47.748;8.960;2023-04-06T02:34:05;97045.34;;;3.37;56.32
3150;BME280;32503;47.748;8.960;2023-04-06T02:36:32;97039.16;;;3.28;56.12
3150;BME280;32503;47.748;8.960;2023-04-06T02:39:00;97053.50;;;3.32;56.57
3150;BME280;32503;47.748;8.960;2023-04-06T02:41:27;97058.78;;;3.23;56.45
3150;BME280;32503;47.748;8.960;2023-04-06T02:43:54;97056.81;;;3.15;57.08
3150;BME280;32503;47.748;8.960;2023-04-06T02:46:22;97056.81;;;3.15;56.95
3150;BME280;32503;47.748;8.960;2023-04-06T02:48:50;97054.75;;;3.12;57.22
3150;BME280;32503;47.748;8.960;2023-04-06T02:51:17;97056.25;;;3.04;57.09
3150;BME280;32503;47.748;8.960;2023-04-06T02:53:44;97056.84;;;3.01;57.15
3150;BME280;32503;47.748;8.960;2023-04-06T02:56:11;97053.19;;;2.97;57.53
3150;BME280;32503;47.748;8.960;2023-04-06T02:58:39;97053.69;;;2.99;57.77
3150;BME280;32503;47.748;8.960;2023-04-06T03:01:06;97044.38;;;2.96;58.06
3150;BME280;32503;47.748;8.960;2023-04-06T03:03:33;97045.09;;;2.88;57.67
3150;BME280;32503;47.748;8.960;2023-04-06T03:06:02;97042.44;;;2.88;58.44
3150;BME280;32503;47.748;8.960;2023-04-06T03:08:29;97053.13;;;2.88;58.12
3150;BME280;32503;47.748;8.960;2023-04-06T03:10:56;97051.03;;;2.85;57.91
3150;BME280;32503;47.748;8.960;2023-04-06T03:13:23;97054.97;;;2.88;57.44
3150;BME280;32503;47.748;8.960;2023-04-06T03:15:51;97041.03;;;2.77;57.95
3150;BME280;32503;47.748;8.960;2023-04-06T03:18:22;97033.03;;;2.77;57.71
3150;BME280;32503;47.748;8.960;2023-04-06T03:20:49;97026.25;;;2.71;57.31
3150;BME280;32503;47.748;8.960;2023-04-06T03:23:18;97057.59;;;2.79;57.60
3150;BME280;32503;47.748;8.960;2023-04-06T03:25:46;97050.34;;;2.79;57.85
3150;BME280;32503;47.748;8.960;2023-04-06T03:28:13;97051.25;;;2.75;58.13
3150;BME280;32503;47.748;8.960;2023-04-06T03:30:41;97052.53;;;2.77;57.90
3150;BME280;32503;47.748;8.960;2023-04-06T03:33:08;97048.56;;;2.75;58.05
3150;BME280;32503;47.748;8.960;2023-04-06T03:35:36;97045.59;;;2.76;57.76
3150;BME280;32503;47.748;8.960;2023-04-06T03:38:03;97051.03;;;2.71;58.34
3150;BME280;32503;47.748;8.960;2023-04-06T03:40:32;97024.47;;;2.52;57.77
3150;BME280;32503;47.748;8.960;2023-04-06T03:42:59;97054.09;;;2.64;58.75
3150;BME280;32503;47.748;8.960;2023-04-06T03:45:26;97057.69;;;2.60;58.84
3150;BME280;32503;47.748;8.960;2023-04-06T03:47:53;97044.53;;;2.63;58.68
3150;BME280;32503;47.748;8.960;2023-04-06T03:50:20;97060.06;;;2.61;58.54
3150;BME280;32503;47.748;8.960;2023-04-06T03:52:47;97062.72;;;2.61;58.12
3150;BME280;32503;47.748;8.960;2023-04-06T03:55:15;97056.38;;;2.57;58.84
3150;BME280;32503;47.748;8.960;2023-04-06T03:57:44;97062.44;;;2.49;58.42
3150;BME280;32503;47.748;8.960;2023-04-06T04:00:12;97060.34;;;2.46;58.76
3150;BME280;32503;47.748;8.960;2023-04-06T04:02:40;97059.78;;;2.49;58.59
3150;BME280;32503;47.748;8.960;2023-04-06T04:05:08;97067.47;;;2.51;58.45
3150;BME280;32503;47.748;8.960;2023-04-06T04:07:35;97067.16;;;2.52;58.61
3150;BME280;32503;47.748;8.960;2023-04-06T04:10:03;97060.84;;;2.48;58.15
3150;BME280;32503;47.748;8.960;2023-04-06T04:12:31;97061.63;;;2.49;58.73
3150;BME280;32503;47.748;8.960;2023-04-06T04:14:59;97071.13;;;2.55;57.75
3150;BME280;32503;47.748;8.960;2023-04-06T04:17:26;97068.25;;;2.51;57.77
3150;BME280;32503;47.748;8.960;2023-04-06T04:19:53;97068.66;;;2.44;58.38
3150;BME280;32503;47.748;8.960;2023-04-06T04:22:20;97073.88;;;2.36;58.94
3150;BME280;32503;47.748;8.960;2023-04-06T04:24:48;97066.84;;;2.40;58.34
3150;BME280;32503;47.748;8.960;2023-04-06T04:27:15;97072.19;;;2.40;58.39
3150;BME280;32503;47.748;8.960;2023-04-06T04:29:42;97064.38;;;2.43;58.45
3150;BME280;32503;47.748;8.960;2023-04-06T04:32:11;97058.38;;;2.38;58.31
3150;BME280;32503;47.748;8.960;2023-04-06T04:34:38;97063.59;;;2.29;58.03
3150;BME280;32503;47.748;8.960;2023-04-06T04:37:06;97072.00;;;2.22;58.89
3150;BME280;32503;47.748;8.960;2023-04-06T04:39:33;97065.94;;;2.17;58.91
3150;BME280;32503;47.748;8.960;2023-04-06T04:42:00;97072.97;;;2.13;59.11
3150;BME280;32503;47.748;8.960;2023-04-06T04:44:28;97075.63;;;2.13;59.01
3150;BME280;32503;47.748;8.960;2023-04-06T04:46:55;97071.16;;;2.08;59.46
3150;BME280;32503;47.748;8.960;2023-04-06T04:49:26;97079.25;;;2.03;59.76
3150;BME280;32503;47.748;8.960;2023-04-06T04:51:53;97077.97;;;2.00;59.89
3150;BME280;32503;47.748;8.960;2023-04-06T04:54:20;97079.06;;;1.99;60.35
3150;BME280;32503;47.748;8.960;2023-04-06T04:56:48;97079.97;;;2.08;59.84
3150;BME280;32503;47.748;8.960;2023-04-06T04:59:16;97090.94;;;2.07;59.67
3150;BME280;32503;47.748;8.960;2023-04-06T05:01:43;97087.47;;;2.06;59.51
3150;BME280;32503;47.748;8.960;2023-04-06T05:04:10;97097.72;;;1.99;59.66
3150;BME280;32503;47.748;8.960;2023-04-06T05:06:40;97097.44;;;2.01;60.38
3150;BME280;32503;47.748;8.960;2023-04-06T05:09:08;97089.66;;;2.18;59.90
3150;BME280;32503;47.748;8.960;2023-04-06T05:11:37;97091.50;;;2.37;59.02
3150;BME280;32503;47.748;8.960;2023-04-06T05:14:04;97085.56;;;2.54;58.66
3150;BME280;32503;47.748;8.960;2023-04-06T05:16:32;97095.16;;;2.69;58.44
3150;BME280;32503;47.748;8.960;2023-04-06T05:18:59;97093.06;;;2.93;58.48
3150;BME280;32503;47.748;8.960;2023-04-06T05:21:27;97088.09;;;3.14;57.42
3150;BME280;32503;47.748;8.960;2023-04-06T05:23:55;97095.25;;;3.41;57.14
3150;BME280;32503;47.748;8.960;2023-04-06T05:26:22;97091.84;;;3.72;56.22
3150;BME280;32503;47.748;8.960;2023-04-06T05:28:50;97096.78;;;4.02;55.73
3150;BME280;32503;47.748;8.960;2023-04-06T05:31:20;97095.16;;;4.23;55.06
3150;BME280;32503;47.748;8.960;2023-04-06T05:33:48;97100.66;;;4.49;54.60
3150;BME280;32503;47.748;8.960;2023-04-06T05:36:15;97105.94;;;4.72;53.91
3150;BME280;32503;47.748;8.960;2023-04-06T05:38:42;97102.22;;;4.90;53.62
3150;BME280;32503;47.748;8.960;2023-04-06T05:41:11;97116.16;;;5.27;52.50
3150;BME280;32503;47.748;8.960;2023-04-06T05:43:38;97095.56;;;5.45;52.27
3150;BME280;32503;47.748;8.960;2023-04-06T05:46:05;97116.81;;;5.94;51.76
3150;BME280;32503;47.748;8.960;2023-04-06T05:48:32;97116.66;;;6.25;49.78
3150;BME280;32503;47.748;8.960;2023-04-06T05:51:00;97112.78;;;6.53;49.28
3150;BME280;32503;47.748;8.960;2023-04-06T05:53:27;97117.38;;;6.91;47.72
3150;BME280;32503;47.748;8.960;2023-04-06T05:55:55;97114.69;;;7.20;47.10
3150;BME280;32503;47.748;8.960;2023-04-06T05:58:23;97112.16;;;7.45;47.34
3150;BME280;32503;47.748;8.960;2023-04-06T06:00:51;97115.97;;;7.86;45.15
3150;BME280;32503;47.748;8.960;2023-04-06T06:03:22;97124.09;;;7.98;44.01
3150;BME280;32503;47.748;8.960;2023-04-06T06:05:50;97122.38;;;8.27;44.46
3150;BME280;32503;47.748;8.960;2023-04-06T06:08:17;97119.34;;;8.62;43.71
3150;BME280;32503;47.748;8.960;2023-04-06T06:10:44;97117.56;;;8.91;43.32
3150;BME280;32503;47.748;8.960;2023-04-06T06:13:11;97114.44;;;9.01;42.66
3150;BME280;32503;47.748;8.960;2023-04-06T06:15:40;97127.78;;;9.35;42.07
3150;BME280;32503;47.748;8.960;2023-04-06T06:18:07;97133.66;;;9.77;41.32
3150;BME280;32503;47.748;8.960;2023-04-06T06:20:34;97123.16;;;10.16;40.67
3150;BME280;32503;47.748;8.960;2023-04-06T06:23:01;97121.69;;;10.47;40.03
3150;BME280;32503;47.748;8.960;2023-04-06T06:25:28;97113.00;;;10.70;39.14
3150;BME280;32503;47.748;8.960;2023-04-06T06:27:56;97127.72;;;10.88;39.47
3150;BME280;32503;47.748;8.960;2023-04-06T06:30:23;97127.31;;;10.86;39.05
3150;BME280;32503;47.748;8.960;2023-04-06T06:32:53;97124.69;;;11.06;39.44
3150;BME280;32503;47.748;8.960;2023-04-06T06:35:20;97137.56;;;11.28;38.85
3150;BME280;32503;47.748;8.960;2023-04-06T06:37:47;97117.50;;;11.65;35.96
3150;BME280;32503;47.748;8.960;2023-04-06T06:40:14;97133.16;;;11.75;36.68
3150;BME280;32503;47.748;8.960;2023-04-06T06:42:43;97126.75;;;11.83;36.75
3150;BME280;32503;47.748;8.960;2023-04-06T06:45:11;97118.44;;;12.11;36.50
3150;BME280;32503;47.748;8.960;2023-04-06T06:47:38;97127.69;;;12.49;35.56
3150;BME280;32503;47.748;8.960;2023-04-06T06:50:09;97125.44;;;12.55;35.44
3150;BME280;32503;47.748;8.960;2023-04-06T06:52:36;97127.84;;;13.06;42.34
3150;BME280;32503;47.748;8.960;2023-04-06T06:55:03;97122.84;;;13.62;38.72
3150;BME280;32503;47.748;8.960;2023-04-06T06:57:30;97128.97;;;14.16;35.51
3150;BME280;32503;47.748;8.960;2023-04-06T06:59:58;97129.47;;;14.25;32.25
3150;BME280;32503;47.748;8.960;2023-04-06T07:02:25;97131.78;;;14.23;31.95
3150;BME280;32503;47.748;8.960;2023-04-06T07:04:53;97127.72;;;14.10;32.51
3150;BME280;32503;47.748;8.960;2023-04-06T07:07:21;97136.19;;;14.04;32.45
3150;BME280;32503;47.748;8.960;2023-04-06T07:09:48;97129.31;;;14.11;32.46
3150;BME280;32503;47.748;8.960;2023-04-06T07:12:16;97131.78;;;14.23;32.61
3150;BME280;32503;47.748;8.960;2023-04-06T07:14:43;97136.63;;;14.07;32.67
3150;BME280;32503;47.748;8.960;2023-04-06T07:17:10;97139.31;;;14.03;32.17
3150;BME280;32503;47.748;8.960;2023-04-06T07:19:37;97134.25;;;14.01;32.58
3150;BME280;32503;47.748;8.960;2023-04-06T07:22:04;97140.13;;;14.07;32.24
3150;BME280;32503;47.748;8.960;2023-04-06T07:24:33;97132.44;;;14.13;32.38
3150;BME280;32503;47.748;8.960;2023-04-06T07:27:00;97129.34;;;14.14;31.95
3150;BME280;32503;47.748;8.960;2023-04-06T07:29:27;97144.25;;;14.28;32.19
3150;BME280;32503;47.748;8.960;2023-04-06T07:31:55;97137.28;;;14.30;32.05
3150;BME280;32503;47.748;8.960;2023-04-06T07:34:22;97141.16;;;14.29;32.05
3150;BME280;32503;47.748;8.960;2023-04-06T07:36:50;97140.00;;;14.30;31.85
3150;BME280;32503;47.748;8.960;2023-04-06T07:39:18;97138.75;;;14.24;31.58
3150;BME280;32503;47.748;8.960;2023-04-06T07:41:47;97137.13;;;14.16;31.95
3150;BME280;32503;47.748;8.960;2023-04-06T07:44:14;97134.84;;;13.57;32.17
3150;BME280;32503;47.748;8.960;2023-04-06T07:46:41;97128.66;;;13.60;32.88
3150;BME280;32503;47.748;8.960;2023-04-06T07:49:08;97135.34;;;13.67;32.17
3150;BME280;32503;47.748;8.960;2023-04-06T07:51:36;97135.16;;;13.82;32.12
3150;BME280;32503;47.748;8.960;2023-04-06T07:54:04;97134.06;;;13.87;32.16
3150;BME280;32503;47.748;8.960;2023-04-06T07:56:31;97134.41;;;14.16;32.29
3150;BME280;32503;47.748;8.960;2023-04-06T07:59:00;97136.66;;;14.44;31.89
3150;BME280;32503;47.748;8.960;2023-04-06T08:01:29;97141.53;;;14.62;31.62
3150;BME280;32503;47.748;8.960;2023-04-06T08:03:56;97139.50;;;14.96;32.05
3150;BME280;32503;47.748;8.960;2023-04-06T08:06:24;97141.31;;;15.29;31.61
3150;BME280;32503;47.748;8.960;2023-04-06T08:08:52;97140.28;;;15.48;30.64
3150;BME280;32503;47.748;8.960;2023-04-06T08:11:19;97141.41;;;15.44;30.83
3150;BME280;32503;47.748;8.960;2023-04-06T08:13:46;97133.75;;;15.64;30.69
3150;BME280;32503;47.748;8.960;2023-04-06T08:16:15;97132.63;;;15.09;29.46
3150;BME280;32503;47.748;8.960;2023-04-06T08:18:42;97136.38;;;14.53;29.84
3150;BME280;32503;47.748;8.960;2023-04-06T08:21:09;97123.34;;;13.98;30.73
3150;BME280;32503;47.748;8.960;2023-04-06T08:23:36;97132.91;;;13.88;31.49
3150;BME280;32503;47.748;8.960;2023-04-06T08:26:03;97129.56;;;14.36;32.06
3150;BME280;32503;47.748;8.960;2023-04-06T08:28:31;97127.16;;;13.93;30.82
3150;BME280;32503;47.748;8.960;2023-04-06T08:30:58;97121.44;;;14.02;31.82
3150;BME280;32503;47.748;8.960;2023-04-06T08:33:26;97119.13;;;14.04;31.75
3150;BME280;32503;47.748;8.960;2023-04-06T08:36:00;97123.72;;;14.34;30.95
3150;BME280;32503;47.748;8.960;2023-04-06T08:38:33;97120.94;;;14.64;31.28
3150;BME280;32503;47.748;8.960;2023-04-06T08:41:00;97114.53;;;14.87;30.79
3150;BME280;32503;47.748;8.960;2023-04-06T08:43:28;97100.44;;;14.74;29.05
3150;BME280;32503;47.748;8.960;2023-04-06T08:45:56;97099.34;;;14.86;30.00
3150;BME280;32503;47.748;8.960;2023-04-06T08:48:26;97119.06;;;14.68;29.29
3150;BME280;32503;47.748;8.960;2023-04-06T08:50:54;97127.72;;;14.81;30.03
3150;BME280;32503;47.748;8.960;2023-04-06T08:53:22;97122.00;;;14.93;29.27
3150;BME280;32503;47.748;8.960;2023-04-06T08:55:49;97123.56;;;14.57;29.46
3150;BME280;32503;47.748;8.960;2023-04-06T08:58:17;97119.22;;;14.86;29.91
3150;BME280;32503;47.748;8.960;2023-04-06T09:00:44;97122.31;;;14.85;29.00
3150;BME280;32503;47.748;8.960;2023-04-06T09:03:12;97121.06;;;14.41;30.11
3150;BME280;32503;47.748;8.960;2023-04-06T09:05:41;97114.66;;;14.19;30.21
3150;BME280;32503;47.748;8.960;2023-04-06T09:08:09;97116.34;;;14.34;30.32
3150;BME280;32503;47.748;8.960;2023-04-06T09:10:40;97111.03;;;14.86;30.70
3150;BME280;32503;47.748;8.960;2023-04-06T09:13:08;97110.97;;;15.31;30.12
3150;BME280;32503;47.748;8.960;2023-04-06T09:15:36;97113.59;;;15.76;29.02
3150;BME280;32503;47.748;8.960;2023-04-06T09:18:04;97106.06;;;15.54;27.82
3150;BME280;32503;47.748;8.960;2023-04-06T09:20:31;97103.66;;;15.42;28.55
3150;BME280;32503;47.748;8.960;2023-04-06T09:23:00;97106.13;;;15.65;28.97
3150;BME280;32503;47.748;8.960;2023-04-06T09:25:27;97104.91;;;15.59;27.52
3150;BME280;32503;47.748;8.960;2023-04-06T09:28:01;97099.91;;;15.72;28.06
3150;BME280;32503;47.748;8.960;2023-04-06T09:30:28;97096.09;;;15.80;27.90
3150;BME280;32503;47.748;8.960;2023-04-06T09:32:57;97105.03;;;14.66;28.91
3150;BME280;32503;47.748;8.960;2023-04-06T09:35:25;97103.53;;;14.72;29.59
3150;BME280;32503;47.748;8.960;2023-04-06T09:37:53;97099.38;;;14.89;29.04
3150;BME280;32503;47.748;8.960;2023-04-06T09:40:22;97102.09;;;14.89;28.28
3150;BME280;32503;47.748;8.960;2023-04-06T09:42:50;97099.94;;;14.27;28.64
3150;BME280;32503;47.748;8.960;2023-04-06T09:45:20;97092.41;;;14.13;29.18
3150;BME280;32503;47.748;8.960;2023-04-06T09:47:47;97070.75;;;13.87;29.03
3150;BME280;32503;47.748;8.960;2023-04-06T09:50:15;97093.63;;;14.16;29.47
3150;BME280;32503;47.748;8.960;2023-04-06T09:52:47;97068.25;;;14.42;29.27
3150;BME280;32503;47.748;8.960;2023-04-06T09:55:23;97080.44;;;15.00;27.76
3150;BME280;32503;47.748;8.960;2023-04-06T09:57:58;97078.19;;;15.13;28.37
3150;BME280;32503;47.748;8.960;2023-04-06T10:00:30;97075.31;;;15.58;28.56
3150;BME280;32503;47.748;8.960;2023-04-06T10:03:07;97077.94;;;14.81;27.24
3150;BME280;32503;47.748;8.960;2023-04-06T10:05:45;97077.41;;;15.12;28.12
3150;BME280;32503;47.748;8.960;2023-04-06T10:08:14;97058.94;;;15.47;27.69
3150;BME280;32503;47.748;8.960;2023-04-06T10:10:43;97067.75;;;15.96;28.03
3150;BME280;32503;47.748;8.960;2023-04-06T10:13:11;97048.63;;;15.85;26.49
3150;BME280;32503;47.748;8.960;2023-04-06T10:15:38;97072.09;;;15.34;27.15
3150;BME280;32503;47.748;8.960;2023-04-06T10:18:06;97060.16;;;15.57;27.74
3150;BME280;32503;47.748;8.960;2023-04-06T10:20:39;97052.13;;;15.92;27.63
3150;BME280;32503;47.748;8.960;2023-04-06T10:23:11;97063.53;;;16.30;26.27
3150;BME280;32503;47.748;8.960;2023-04-06T10:25:53;97061.22;;;16.40;25.55
3150;BME280;32503;47.748;8.960;2023-04-06T10:28:21;97067.09;;;16.74;26.35
3150;BME280;32503;47.748;8.960;2023-04-06T10:30:49;97053.06;;;16.94;25.39
3150;BME280;32503;47.748;8.960;2023-04-06T10:33:17;97060.09;;;16.98;25.08
3150;BME280;32503;47.748;8.960;2023-04-06T10:35:45;97059.28;;;17.23;25.37
3150;BME280;32503;47.748;8.960;2023-04-06T10:38:13;97049.88;;;16.23;25.24
3150;BME280;32503;47.748;8.960;2023-04-06T10:40:42;97041.63;;;16.02;26.05
3150;BME280;32503;47.748;8.960;2023-04-06T10:43:18;97037.38;;;16.08;25.67
3150;BME280;32503;47.748;8.960;2023-04-06T10:45:55;97028.03;;;16.09;24.47
3150;BME280;32503;47.748;8.960;2023-04-06T10:48:22;97035.75;;;15.85;24.63
3150;BME280;32503;47.748;8.960;2023-04-06T10:50:52;97035.31;;;15.03;24.58
3150;BME280;32503;47.748;8.960;2023-04-06T10:53:23;97037.44;;;14.72;24.87
3150;BME280;32503;47.748;8.960;2023-04-06T10:55:52;97057.09;;;14.17;26.19
3150;BME280;32503;47.748;8.960;2023-04-06T10:58:25;97049.22;;;14.42;26.29
3150;BME280;32503;47.748;8.960;2023-04-06T11:00:52;97054.72;;;14.97;25.41
3150;BME280;32503;47.748;8.960;2023-04-06T11:03:20;97043.25;;;15.26;24.28
3150;BME280;32503;47.748;8.960;2023-04-06T11:05:50;97032.63;;;15.76;25.23
3150;BME280;32503;47.748;8.960;2023-04-06T11:08:26;97043.66;;;16.26;24.46
3150;BME280;32503;47.748;8.960;2023-04-06T11:11:05;97028.88;;;16.67;24.59
3150;BME280;32503;47.748;8.960;2023-04-06T11:13:45;97047.19;;;17.17;23.12
3150;BME280;32503;47.748;8.960;2023-04-06T11:16:14;97023.38;;;17.21;22.87
3150;BME280;32503;47.748;8.960;2023-04-06T11:18:52;97030.38;;;17.29;22.60
3150;BME280;32503;47.748;8.960;2023-04-06T11:21:33;97024.91;;;17.25;22.89
3150;BME280;32503;47.748;8.960;2023-04-06T11:24:08;97020.19;;;17.44;23.38
3150;BME280;32503;47.748;8.960;2023-04-06T11:26:40;97010.88;;;17.20;23.26
3150;BME280;32503;47.748;8.960;2023-04-06T11:29:11;97010.50;;;17.18;22.07
3150;BME280;32503;47.748;8.960;2023-04-06T11:31:44;97020.28;;;17.04;22.11
3150;BME280;32503;47.748;8.960;2023-04-06T11:34:13;97005.50;;;16.91;22.46
3150;BME280;32503;47.748;8.960;2023-04-06T11:36:44;97017.16;;;16.95;21.07
3150;BME280;32503;47.748;8.960;2023-04-06T11:39:12;96984.41;;;16.70;22.01
3150;BME280;32503;47.748;8.960;2023-04-06T11:41:39;97012.91;;;16.94;22.54
3150;BME280;32503;47.748;8.960;2023-04-06T11:44:07;97001.56;;;17.07;22.61
3150;BME280;32503;47.748;8.960;2023-04-06T11:46:35;97001.47;;;17.39;22.16
3150;BME280;32503;47.748;8.960;2023-04-06T11:49:03;96997.84;;;17.63;23.00
3150;BME280;32503;47.748;8.960;2023-04-06T11:51:30;96992.69;;;17.84;22.35
3150;BME280;32503;47.748;8.960;2023-04-06T11:54:02;96994.94;;;18.03;22.30
3150;BME280;32503;47.748;8.960;2023-04-06T11:56:30;96990.50;;;18.24;22.53
3150;BME280;32503;47.748;8.960;2023-04-06T11:58:58;96987.41;;;18.22;22.68
3150;BME280;32503;47.748;8.960;2023-04-06T12:01:26;96985.78;;;18.28;22.11
3150;BME280;32503;47.748;8.960;2023-04-06T12:03:54;96981.91;;;18.25;21.89
3150;BME280;32503;47.748;8.960;2023-04-06T12:06:22;96973.19;;;17.78;21.41
3150;BME280;32503;47.748;8.960;2023-04-06T12:08:51;96984.00;;;17.00;22.32
3150;BME280;32503;47.748;8.960;2023-04-06T12:11:18;96972.72;;;16.59;23.49
3150;BME280;32503;47.748;8.960;2023-04-06T12:13:46;96969.63;;;16.32;23.18
3150;BME280;32503;47.748;8.960;2023-04-06T12:16:13;96958.56;;;15.67;23.83
3150;BME280;32503;47.748;8.960;2023-04-06T12:18:40;96964.91;;;15.92;23.80
3150;BME280;32503;47.748;8.960;2023-04-06T12:21:09;96967.28;;;16.26;24.71
3150;BME280;32503;47.748;8.960;2023-04-06T12:23:36;96961.81;;;16.73;24.50
3150;BME280;32503;47.748;8.960;2023-04-06T12:26:03;96971.91;;;17.09;24.93
3150;BME280;32503;47.748;8.960;2023-04-06T12:28:30;96957.72;;;17.42;23.98
3150;BME280;32503;47.748;8.960;2023-04-06T12:30:57;96959.22;;;17.58;23.99
3150;BME280;32503;47.748;8.960;2023-04-06T12:33:25;96961.06;;;17.83;24.33
3150;BME280;32503;47.748;8.960;2023-04-06T12:35:52;96961.00;;;17.97;23.37
3150;BME280;32503;47.748;8.960;2023-04-06T12:38:20;96953.13;;;18.06;23.25
3150;BME280;32503;47.748;8.960;2023-04-06T12:40:48;96947.09;;;18.26;22.45
3150;BME280;32503;47.748;8.960;2023-04-06T12:43:15;96956.41;;;18.39;22.63
3150;BME280;32503;47.748;8.960;2023-04-06T12:45:42;96960.00;;;18.29;21.74
3150;BME280;32503;47.748;8.960;2023-04-06T12:48:09;96960.50;;;18.13;22.86
3150;BME280;32503;47.748;8.960;2023-04-06T12:50:36;96960.66;;;17.91;22.48
3150;BME280;32503;47.748;8.960;2023-04-06T12:53:03;96951.03;;;17.58;22.32
3150;BME280;32503;47.748;8.960;2023-04-06T12:55:32;96950.63;;;17.63;23.53
3150;BME280;32503;47.748;8.960;2023-04-06T12:58:01;96959.88;;;17.87;23.40
3150;BME280;32503;47.748;8.960;2023-04-06T13:00:28;96960.75;;;17.62;22.08
3150;BME280;32503;47.748;8.960;2023-04-06T13:02:56;96953.88;;;17.25;22.94
3150;BME280;32503;47.748;8.960;2023-04-06T13:05:24;96954.28;;;17.24;24.12
3150;BME280;32503;47.748;8.960;2023-04-06T13:07:51;96951.53;;;17.31;24.00
3150;BME280;32503;47.748;8.960;2023-04-06T13:10:18;96946.00;;;17.49;23.82
3150;BME280;32503;47.748;8.960;2023-04-06T13:12:47;96946.38;;;17.51;23.46
3150;BME280;32503;47.748;8.960;2023-04-06T13:15:14;96942.34;;;16.17;24.06
3150;BME280;32503;47.748;8.960;2023-04-06T13:17:42;96950.91;;;16.05;24.83
3150;BME280;32503;47.748;8.960;2023-04-06T13:20:10;96941.44;;;15.70;24.85